CheckWX is a tool to help pilots better visualize weather data.  It is not intended as a substitute for an official pre-flight weather briefing.

07:57:23 UTC

KBUF TAF
Buffalo Niagara International Airport
Buffalo, New York, USA
KBUF 230528Z 2306/2406 22010KT P6SM SKC WS020/26035KT FM230900 23012G22KT P6SM FEW250 FM232100 21010G18KT P6SM FEW250 FM240200 21013G23KT P6SM SCT250

Feb-23@
06:00 UTC

Feb-23 @ 06:00 UTC

Feb-23@
09:00 UTC

Feb-23 @ 09:00 UTC

KBUF 230528Z 2306/2406 22010KT P6SM SKC WS020/26035KT
Wind
  • 220° at 10 KTS
Cloud Levels
  • Clear skies

Feb-23@
09:00 UTC

Feb-23 @ 09:00 UTC

Feb-23@
21:00 UTC

Feb-23 @ 21:00 UTC

FM230900 23012G22KT P6SM FEW250

From

From Standard forecast or significant change

Wind
  • 230° at 12 KTS
  • {Gusting to 22 KTS
Cloud Levels
  • Few at 25,000' AGL

Feb-23@
21:00 UTC

Feb-23 @ 21:00 UTC

Feb-24@
02:00 UTC

Feb-24 @ 02:00 UTC

FM232100 21010G18KT P6SM FEW250

From

From Standard forecast or significant change

Wind
  • 210° at 10 KTS
  • {Gusting to 18 KTS
Cloud Levels
  • Few at 25,000' AGL

Feb-24@
02:00 UTC

Feb-24 @ 02:00 UTC

Feb-24@
06:00 UTC

Feb-24 @ 06:00 UTC

FM240200 21013G23KT P6SM SCT250

From

From Standard forecast or significant change

Wind
  • 210° at 13 KTS
  • {Gusting to 23 KTS
Cloud Levels
  • Scattered at 25,000' AGL